Flight Track Log - Related Links

Times and Time Zones

All times are in EDT time to prevent confusion due to time zone crossing. See the ASQ4252 flight status page for this flight to view local times or setup timezone preferences in your user account.

Time Position Orientation Groundspeed Altitude Reporting Facility
EDT Latitude Longitude Course Direction KTS MPH feet Rate Location/Type
Sun 10:40:36 PM 29.9956 -90.2747 261° West 162 186 600  Level Houston Center
Sun 10:41:15 PM 29.9900 -90.3169 261° West 192 221 2,600 2,836 Climbing Houston Center
Sun 10:41:31 PM 29.9847 -90.3328 249° West 214 246 3,200 2,710 Climbing Houston Center
Sun 10:42:17 PM 29.9686 -90.3933 253° West 239 275 5,400 3,308 Climbing Houston Center
Sun 10:43:18 PM 29.9431 -90.4781 251° West 271 312 9,100 3,295 Climbing Houston Center
Sun 10:44:19 PM 29.9156 -90.5628 249° West 282 325 12,100 2,754 Climbing Houston Center
Sun 10:45:20 PM 29.8897 -90.6553 252° West 300 345 14,700 2,311 Climbing Houston Center
Sun 10:46:21 PM 29.8597 -90.7525 250° West 319 367 16,800 2,016 Climbing Houston Center
Sun 10:47:22 PM 29.8275 -90.8536 250° West 335 386 18,800 1,967 Climbing Houston Center
Sun 10:48:23 PM 29.7983 -90.9581 252° West 343 395 20,800 1,967 Climbing Houston Center
Sun 10:49:24 PM 29.7747 -91.0681 256° West 354 407 22,800 1,721 Climbing Houston Center
Sun 10:50:25 PM 29.7500 -91.1806 256° West 362 417 24,300 1,475 Climbing Houston Center
Sun 10:51:26 PM 29.7233 -91.2975 255° West 376 433 25,800 836 Climbing Houston Center
Sun 10:52:27 PM 29.6942 -91.4214 255° West 400 460 26,000 98 Climbing Houston Center
Sun 10:53:28 PM 29.6581 -91.5825 256° West 435 501 26,000  Level Houston Center
Sun 10:54:29 PM 29.6272 -91.7219 256° West 449 517 26,000  Level Houston Center
Sun 10:55:30 PM 29.5944 -91.8600 255° West 451 519 26,000  Level Houston Center
Sun 10:56:31 PM 29.5636 -91.9994 256° West 451 519 26,000  Level Houston Center
Sun 10:57:32 PM 29.5361 -92.1394 257° West 450 518 26,000  Level Houston Center
Sun 10:58:33 PM 29.5369 -92.2853 270° West 457 526 26,000  Level Houston Center
Sun 10:59:34 PM 29.5369 -92.4300 270° West 452 520 26,000  Level Houston Center
Sun 11:00:35 PM 29.5381 -92.5742 271° West 452 520 26,000  Level Houston Center
Sun 11:01:36 PM 29.5383 -92.7200 270° West 455 524 26,000  Level Houston Center
Sun 11:02:37 PM 29.5394 -92.8642 271° West 452 520 26,000  Level Houston Center
Sun 11:03:38 PM 29.5389 -93.0103 270° West 455 524 26,000  Level Houston Center
Sun 11:04:39 PM 29.5392 -93.1567 270° West 457 526 26,000  Level Houston Center
Sun 11:05:39 PM 29.5392 -93.3028 270° West 458 527 26,000  Level Houston Center
Sun 11:06:40 PM 29.5392 -93.4489 270° West 457 526 26,000  Level Houston Center
Sun 11:07:41 PM 29.5381 -93.5950 270° West 456 525 26,000 -590 Level Houston Center
Sun 11:08:42 PM 29.5369 -93.7697 270° West 455 524 24,800 -2,164 Descending Houston Center
Sun 11:09:43 PM 29.5367 -93.9100 270° West 446 513 21,600 -3,049 Descending Houston Center
Sun 11:10:44 PM 29.5358 -94.0414 270° West 422 486 18,600 -2,971 Descending Houston Center
Sun 11:11:26 PM 29.5342 -94.1336 269° West 400 460 16,500 -3,205 Descending Houston Center
Sun 11:11:57 PM 29.5342 -94.1961 270° West 381 438 14,700 -2,475 Descending Houston Center
Sun 11:12:46 PM 29.5333 -94.2819 269° West 368 423 13,200 -982 Descending Houston Center
Sun 11:13:47 PM 29.5511 -94.3847 281° West 345 397 12,900 -595 Descending Houston Center
Sun 11:14:47 PM 29.5950 -94.4903 296° West 364 419 12,000 -942 Descending Houston Center
Sun 11:15:48 PM 29.6417 -94.5967 297° West 373 429 11,000 -984 Descending Houston Center
Sun 11:16:49 PM 29.7189 -94.6764 318° Northwest 390 449 10,000 -492 Descending Houston Center
Sun 11:17:50 PM 29.8033 -94.7428 326° Northwest 376 433 10,000 -541 Level Houston Center
Sun 11:18:51 PM 29.8564 -94.8133 311° West 300 345 8,900 -1,426 Descending Houston Center
Sun 11:19:52 PM 29.9064 -94.8833 309° West 285 328 7,100 -1,918 Descending Houston Center
Sun 11:20:53 PM 29.9622 -94.9653 308° West 276 318 5,000 -1,190 Descending Houston Center
Sun 11:21:53 PM 29.9972 -95.0403 298° West 277 319 4,700 -300 Descending Houston Center

Login

Don't have an account? Register now (free) for customized features, flight alerts, and more!